Time;durP1;ratioP1;P1;durP2;ratioP2;P2;SDS_P1;SDS_P2;PMS_P1;PMS_P2;Temp;Humidity;BMP_temperature;BMP_pressure;BME280_temperature;BME280_humidity;BME280_pressure;Samples;Min_cycle;Max_cycle;Signal;HPM_P1;HPM_P2
2021/12/23 00:00:48;;;;;;;66.53;18.90;;;-6.00;99.90;;;;;;4950182;29;20105;-69
2021/12/23 00:03:14;;;;;;;68.43;19.27;;;-6.00;99.90;;;;;;4949474;29;20804;-69
2021/12/23 00:05:39;;;;;;;66.90;20.00;;;-6.10;99.90;;;;;;4950184;29;20129;-69
2021/12/23 00:08:05;;;;;;;66.45;20.48;;;-6.10;99.90;;;;;;4948334;29;20065;-69
2021/12/23 00:10:31;;;;;;;71.30;20.15;;;-6.10;99.90;;;;;;4949236;28;20042;-69
2021/12/23 00:12:56;;;;;;;66.18;18.65;;;-6.10;99.90;;;;;;4950178;29;20468;-69
2021/12/23 00:15:32;;;;;;;66.25;19.70;;;-6.10;99.90;;;;;;4950780;29;20028;-70
2021/12/23 00:18:28;;;;;;;69.50;19.75;;;-6.10;99.90;;;;;;4949434;29;20032;-69
2021/12/23 00:23:34;;;;;;;69.22;19.63;;;-6.10;99.90;;;;;;4949031;29;20070;-69
2021/12/23 00:26:02;;;;;;;64.45;19.23;;;-6.10;99.90;;;;;;4946367;29;20027;-69
2021/12/23 00:28:28;;;;;;;67.82;20.77;;;-6.20;99.90;;;;;;4948868;29;20027;-68
2021/12/23 00:30:54;;;;;;;72.38;21.00;;;-6.20;99.90;;;;;;4948825;29;20051;-67
2021/12/23 00:33:22;;;;;;;69.53;20.35;;;-6.20;99.90;;;;;;4949447;28;20035;-69
2021/12/23 00:35:48;;;;;;;68.55;20.10;;;-6.10;99.90;;;;;;4948942;29;20023;-69
2021/12/23 00:38:20;;;;;;;61.47;18.92;;;-6.20;99.90;;;;;;4949439;28;20641;-69
2021/12/23 00:40:46;;;;;;;69.35;20.63;;;-6.20;99.90;;;;;;4950596;29;20083;-69
2021/12/23 00:43:12;;;;;;;60.20;18.08;;;-6.20;99.90;;;;;;4947989;29;20760;-70
2021/12/23 00:45:38;;;;;;;73.97;18.85;;;-6.20;99.90;;;;;;4950387;29;20035;-69
2021/12/23 00:48:04;;;;;;;71.68;19.92;;;-6.20;99.90;;;;;;4950663;28;20407;-70
2021/12/23 00:50:29;;;;;;;67.85;20.75;;;-6.20;99.90;;;;;;4952462;28;20046;-69
2021/12/23 00:52:57;;;;;;;67.28;19.60;;;-6.30;99.90;;;;;;4945018;29;20031;-67
2021/12/23 00:55:23;;;;;;;71.75;19.58;;;-6.30;99.90;;;;;;4952574;29;20039;-69
2021/12/23 00:57:49;;;;;;;68.80;19.45;;;-6.20;99.90;;;;;;4951882;29;20570;-69
2021/12/23 01:00:18;;;;;;;74.03;20.85;;;-6.20;99.90;;;;;;4951773;29;20608;-69
2021/12/23 01:02:45;;;;;;;72.97;20.67;;;-6.20;99.90;;;;;;4952122;29;20086;-69
2021/12/23 01:05:12;;;;;;;72.75;20.95;;;-6.20;99.90;;;;;;4952995;28;20027;-69
2021/12/23 01:07:38;;;;;;;65.60;19.60;;;-6.30;99.90;;;;;;4953570;29;20031;-69
2021/12/23 01:10:05;;;;;;;81.35;20.50;;;-6.30;99.90;;;;;;4952967;29;20038;-69
2021/12/23 01:12:37;;;;;;;61.58;18.85;;;-6.30;99.90;;;;;;4953483;29;20086;-70
2021/12/23 01:20:36;;;;;;;74.32;20.00;;;-6.60;99.90;;;;;;4960688;28;20047;-69
2021/12/23 01:23:10;;;;;;;68.57;18.13;;;-6.60;99.90;;;;;;4952416;29;20496;-69
2021/12/23 01:25:40;;;;;;;71.72;19.85;;;-6.60;99.90;;;;;;4953313;29;20039;-69
2021/12/23 01:28:07;;;;;;;72.13;19.73;;;-6.50;99.90;;;;;;4952307;28;20039;-69
2021/12/23 01:30:37;;;;;;;66.18;18.85;;;-6.50;99.90;;;;;;4953330;28;20046;-69
2021/12/23 01:33:04;;;;;;;72.88;19.52;;;-6.50;99.90;;;;;;4949325;29;20086;-70
2021/12/23 01:35:30;;;;;;;57.33;17.35;;;-6.60;99.90;;;;;;4949753;28;20043;-69
2021/12/23 01:37:56;;;;;;;62.17;18.48;;;-6.70;99.90;;;;;;4952496;29;20027;-67
2021/12/23 01:40:24;;;;;;;58.55;17.95;;;-6.70;99.90;;;;;;4952233;29;20494;-68
2021/12/23 01:42:50;;;;;;;61.47;18.58;;;-6.70;99.90;;;;;;4952463;29;20050;-69
2021/12/23 01:45:22;;;;;;;63.28;17.80;;;-6.70;99.90;;;;;;4951462;29;20028;-69
2021/12/23 01:47:48;;;;;;;72.72;19.92;;;-6.70;99.90;;;;;;4953634;29;20038;-70
2021/12/23 01:50:17;;;;;;;61.47;18.65;;;-6.70;99.90;;;;;;4951554;29;20027;-69
2021/12/23 01:52:43;;;;;;;68.30;19.77;;;-6.70;99.90;;;;;;4952569;29;20027;-70
2021/12/23 01:55:11;;;;;;;69.85;20.05;;;-6.70;99.90;;;;;;4952409;29;20388;-69
2021/12/23 01:57:39;;;;;;;65.90;19.23;;;-6.60;99.90;;;;;;4951283;29;20035;-69
2021/12/23 02:00:09;;;;;;;61.92;17.42;;;-6.60;99.90;;;;;;4951824;28;20495;-69
2021/12/23 02:02:35;;;;;;;69.00;18.98;;;-6.50;99.90;;;;;;4950278;28;20718;-69
2021/12/23 02:05:00;;;;;;;63.03;19.02;;;-6.40;99.90;;;;;;4949141;28;20035;-67
2021/12/23 02:07:26;;;;;;;63.97;18.23;;;-6.30;99.90;;;;;;4949979;29;20416;-69
2021/12/23 02:09:54;;;;;;;70.65;20.00;;;-6.30;99.90;;;;;;4949789;29;20537;-69
2021/12/23 02:12:20;;;;;;;65.90;19.08;;;-6.20;99.90;;;;;;4948392;29;20027;-69
2021/12/23 02:14:46;;;;;;;70.15;18.60;;;-6.20;99.90;;;;;;4951310;29;20031;-69
2021/12/23 02:17:11;;;;;;;65.00;18.52;;;-6.10;99.90;;;;;;4949462;29;20038;-69
2021/12/23 02:19:37;;;;;;;60.80;18.00;;;-6.10;99.90;;;;;;4952252;29;20082;-68
2021/12/23 02:22:03;;;;;;;57.45;17.90;;;-6.20;99.90;;;;;;4950606;29;20055;-67
2021/12/23 02:24:29;;;;;;;60.35;17.33;;;-6.30;99.90;;;;;;4942934;29;20122;-69
2021/12/23 02:26:54;;;;;;;61.40;17.40;;;-6.30;99.90;;;;;;4936476;29;20031;-68
2021/12/23 02:29:20;;;;;;;68.35;20.42;;;-6.30;99.90;;;;;;4933000;29;20028;-68
2021/12/23 02:31:48;;;;;;;68.18;19.75;;;-6.30;99.90;;;;;;4937626;29;20094;-69
2021/12/23 02:34:15;;;;;;;64.40;18.58;;;-6.40;99.90;;;;;;4932292;29;20081;-69
2021/12/23 02:36:41;;;;;;;64.60;20.17;;;-6.50;99.90;;;;;;4933572;29;20031;-69
2021/12/23 02:39:06;;;;;;;67.10;19.70;;;-6.50;99.90;;;;;;4933547;29;20024;-69
2021/12/23 02:41:32;;;;;;;60.85;19.00;;;-6.60;99.90;;;;;;4938607;29;20037;-69
2021/12/23 02:43:58;;;;;;;62.22;18.85;;;-6.60;99.90;;;;;;4916178;29;20036;-70
2021/12/23 02:46:24;;;;;;;64.25;18.40;;;-6.50;99.90;;;;;;4932210;29;20849;-70
2021/12/23 02:48:49;;;;;;;61.38;18.65;;;-6.60;99.90;;;;;;4947548;29;20110;-68
2021/12/23 02:51:16;;;;;;;64.85;19.08;;;-6.50;99.90;;;;;;4931977;29;20118;-68
2021/12/23 02:53:43;;;;;;;59.63;18.42;;;-6.50;99.90;;;;;;4933771;29;20046;-69
2021/12/23 02:56:14;;;;;;;63.75;18.88;;;-6.50;99.90;;;;;;4935333;29;20044;-69
2021/12/23 02:58:39;;;;;;;67.45;18.83;;;-6.40;99.90;;;;;;4930555;29;20032;-69
2021/12/23 03:01:08;;;;;;;58.03;18.13;;;-6.40;99.90;;;;;;4928814;29;20468;-67
2021/12/23 03:03:35;;;;;;;66.47;18.65;;;-6.40;99.90;;;;;;4932761;29;20484;-68
2021/12/23 03:06:01;;;;;;;69.03;18.73;;;-6.40;99.90;;;;;;4931549;29;20032;-67
2021/12/23 03:08:28;;;;;;;70.40;18.73;;;-6.30;99.90;;;;;;4931748;29;20110;-68
2021/12/23 03:10:54;;;;;;;64.00;17.90;;;-6.20;99.90;;;;;;4932112;29;20031;-69
2021/12/23 03:13:20;;;;;;;62.30;19.02;;;-6.20;99.90;;;;;;4930854;29;20035;-70
2021/12/23 03:15:45;;;;;;;61.97;19.00;;;-6.20;99.90;;;;;;4933628;29;20551;-69
2021/12/23 03:18:12;;;;;;;63.55;18.13;;;-6.20;99.90;;;;;;4930252;29;20102;-69
2021/12/23 03:20:37;;;;;;;73.70;19.85;;;-6.20;99.90;;;;;;4931422;29;20051;-68
2021/12/23 03:23:03;;;;;;;66.18;19.55;;;-6.10;99.90;;;;;;4940596;29;20407;-67
2021/12/23 03:25:29;;;;;;;67.00;19.38;;;-6.10;99.90;;;;;;4948642;29;20043;-69
2021/12/23 03:27:54;;;;;;;67.18;18.70;;;-6.10;99.90;;;;;;4948294;28;20032;-69
2021/12/23 03:30:20;;;;;;;67.90;19.45;;;-6.20;99.90;;;;;;4948757;29;20039;-69
2021/12/23 03:32:46;;;;;;;57.25;18.20;;;-6.30;99.90;;;;;;4949288;29;20039;-68
2021/12/23 03:35:13;;;;;;;59.42;17.88;;;-6.30;99.90;;;;;;4949122;29;20031;-69
2021/12/23 03:37:38;;;;;;;65.65;18.35;;;-6.30;99.90;;;;;;4950825;29;20538;-69
2021/12/23 03:40:05;;;;;;;67.82;20.35;;;-6.30;99.90;;;;;;4950355;29;20297;-67
2021/12/23 03:42:31;;;;;;;66.47;19.88;;;-6.20;99.90;;;;;;4950363;29;20170;-69
2021/12/23 03:44:57;;;;;;;66.82;18.67;;;-6.20;99.90;;;;;;4951098;29;20110;-69
2021/12/23 03:47:23;;;;;;;67.70;19.77;;;-6.10;99.90;;;;;;4949707;29;20034;-69
2021/12/23 03:49:48;;;;;;;60.15;18.15;;;-6.10;99.90;;;;;;4950900;29;20039;-69
2021/12/23 03:52:14;;;;;;;63.85;18.63;;;-6.20;99.90;;;;;;4948942;28;20488;-69
2021/12/23 03:54:40;;;;;;;67.95;18.90;;;-6.20;99.90;;;;;;4950375;29;20031;-68
2021/12/23 03:57:06;;;;;;;65.72;18.15;;;-6.20;99.90;;;;;;4950408;28;20027;-66
2021/12/23 03:59:33;;;;;;;67.22;18.30;;;-6.30;99.90;;;;;;4948710;29;20023;-69
2021/12/23 04:01:59;;;;;;;66.18;19.70;;;-6.20;99.90;;;;;;4949969;28;20051;-68
2021/12/23 04:04:25;;;;;;;63.63;18.60;;;-6.30;99.90;;;;;;4947872;29;20031;-69
2021/12/23 04:06:51;;;;;;;62.28;18.38;;;-6.40;99.90;;;;;;4938071;29;20036;-68
2021/12/23 04:09:18;;;;;;;65.63;19.27;;;-6.40;99.90;;;;;;4948475;29;20027;-69
2021/12/23 04:11:43;;;;;;;61.53;18.15;;;-6.40;99.90;;;;;;4950160;28;20118;-69
2021/12/23 04:14:09;;;;;;;55.90;17.55;;;-6.30;99.90;;;;;;4946267;29;20466;-65
2021/12/23 04:16:35;;;;;;;75.40;20.00;;;-6.40;99.90;;;;;;4948538;29;20504;-68
2021/12/23 04:19:06;;;;;;;61.15;19.00;;;-6.40;99.90;;;;;;4946722;28;20469;-70
2021/12/23 04:21:32;;;;;;;60.08;17.95;;;-6.40;99.90;;;;;;4946843;29;20043;-69
2021/12/23 04:23:58;;;;;;;61.88;18.52;;;-6.40;99.90;;;;;;4947565;28;20045;-69
2021/12/23 04:26:23;;;;;;;64.70;19.27;;;-6.30;99.90;;;;;;4952859;29;20031;-69
2021/12/23 04:28:49;;;;;;;65.15;19.10;;;-6.30;99.90;;;;;;4954919;29;20038;-70
2021/12/23 04:31:17;;;;;;;63.88;19.38;;;-6.30;99.90;;;;;;4954209;29;20039;-68
2021/12/23 04:33:44;;;;;;;67.03;18.17;;;-6.30;99.90;;;;;;4950647;29;20487;-70
2021/12/23 04:36:10;;;;;;;63.75;19.08;;;-6.30;99.90;;;;;;4939807;29;20058;-65
2021/12/23 04:38:38;;;;;;;68.82;21.00;;;-6.40;99.90;;;;;;4953389;29;20468;-69
2021/12/23 04:41:04;;;;;;;69.93;19.70;;;-6.30;99.90;;;;;;4953382;29;20043;-70
2021/12/23 04:43:29;;;;;;;72.63;20.05;;;-6.30;99.90;;;;;;4952233;29;20626;-70
2021/12/23 04:45:55;;;;;;;70.93;19.98;;;-6.30;99.90;;;;;;4955039;29;20039;-68
2021/12/23 04:48:21;;;;;;;67.82;18.42;;;-6.30;99.90;;;;;;4953960;28;20037;-70
2021/12/23 04:50:46;;;;;;;71.60;21.65;;;-6.20;99.90;;;;;;4954905;29;20031;-69
2021/12/23 04:53:12;;;;;;;66.18;19.88;;;-6.20;99.90;;;;;;4953441;29;20483;-68
2021/12/23 04:55:38;;;;;;;57.88;18.13;;;-6.20;99.90;;;;;;4954463;29;20077;-69
2021/12/23 04:58:03;;;;;;;70.82;21.02;;;-6.20;99.90;;;;;;4944699;29;20111;-68
2021/12/23 05:00:29;;;;;;;62.88;19.00;;;-6.20;99.90;;;;;;4947970;29;20353;-69
2021/12/23 05:02:55;;;;;;;60.92;17.90;;;-6.20;99.90;;;;;;4954462;29;20039;-71
2021/12/23 05:05:20;;;;;;;68.47;18.08;;;-6.20;99.90;;;;;;4951638;29;20435;-67
2021/12/23 05:07:48;;;;;;;68.45;20.10;;;-6.20;99.90;;;;;;4951319;29;20114;-67
2021/12/23 05:10:14;;;;;;;71.18;19.50;;;-6.20;99.90;;;;;;4951185;29;20039;-68
2021/12/23 05:12:45;;;;;;;66.43;18.90;;;-6.20;99.90;;;;;;4952655;28;20046;-68
2021/12/23 05:15:13;;;;;;;66.07;18.83;;;-6.20;99.90;;;;;;4951722;28;20436;-65
2021/12/23 05:17:39;;;;;;;67.70;19.90;;;-6.20;99.90;;;;;;4950208;29;20487;-66
2021/12/23 05:20:07;;;;;;;63.92;18.42;;;-6.10;99.90;;;;;;4948006;29;20369;-68
2021/12/23 05:22:33;;;;;;;67.60;19.73;;;-6.30;99.90;;;;;;4941712;29;20055;-66
2021/12/23 05:24:58;;;;;;;66.97;19.33;;;-6.30;99.90;;;;;;4954100;29;20033;-67
2021/12/23 05:27:24;;;;;;;61.05;18.55;;;-6.30;99.90;;;;;;4951370;29;20035;-68
2021/12/23 05:29:50;;;;;;;72.50;18.23;;;-6.30;99.90;;;;;;4953659;29;20074;-68
2021/12/23 05:32:16;;;;;;;73.72;19.80;;;-6.20;99.90;;;;;;4953009;29;20059;-68
2021/12/23 05:34:41;;;;;;;70.82;18.98;;;-6.00;99.90;;;;;;4952204;28;20090;-68
2021/12/23 05:37:07;;;;;;;68.80;18.38;;;-5.90;99.90;;;;;;4950937;29;20106;-68
2021/12/23 05:39:33;;;;;;;63.50;18.63;;;-5.80;99.90;;;;;;4952880;29;20098;-69
2021/12/23 05:41:59;;;;;;;67.70;19.23;;;-5.70;99.90;;;;;;4953289;29;20101;-69
2021/12/23 05:44:24;;;;;;;61.13;18.20;;;-5.80;99.90;;;;;;4952354;28;20038;-69
2021/12/23 05:46:50;;;;;;;70.93;19.73;;;-5.80;99.90;;;;;;4953131;29;20039;-67
2021/12/23 05:49:15;;;;;;;66.00;18.45;;;-5.90;99.90;;;;;;4952932;29;20086;-66
2021/12/23 05:51:41;;;;;;;70.47;19.80;;;-6.00;99.90;;;;;;4953697;29;20073;-74
2021/12/23 05:54:07;;;;;;;69.38;19.83;;;-6.10;99.90;;;;;;4953696;29;20444;-68
2021/12/23 05:56:33;;;;;;;62.65;19.67;;;-6.20;99.90;;;;;;4951025;29;20102;-70
2021/12/23 05:58:58;;;;;;;74.53;21.38;;;-6.30;99.90;;;;;;4967563;28;20035;-67
2021/12/23 06:01:24;;;;;;;70.18;21.60;;;-6.30;99.90;;;;;;4952313;29;20046;-68
2021/12/23 06:03:50;;;;;;;77.88;22.70;;;-6.40;99.90;;;;;;4952331;29;20039;-68
2021/12/23 06:06:16;;;;;;;72.88;22.05;;;-6.50;99.90;;;;;;4950829;29;20106;-65
2021/12/23 06:08:43;;;;;;;69.75;20.33;;;-6.50;99.90;;;;;;4952664;29;20038;-70
2021/12/23 06:11:08;;;;;;;68.03;19.38;;;-6.50;99.90;;;;;;4950153;29;20051;-67
2021/12/23 06:13:35;;;;;;;79.35;21.00;;;-6.50;99.90;;;;;;4952405;29;20597;-70
2021/12/23 06:16:00;;;;;;;71.75;19.90;;;-6.60;99.90;;;;;;4951557;29;20468;-71
2021/12/23 06:18:26;;;;;;;72.18;19.48;;;-6.60;99.90;;;;;;4950701;29;20063;-69
2021/12/23 06:20:52;;;;;;;72.45;20.38;;;-6.60;99.90;;;;;;4948564;29;20035;-72
2021/12/23 06:23:18;;;;;;;71.00;19.27;;;-6.50;99.90;;;;;;4934723;29;20388;-67
2021/12/23 06:25:43;;;;;;;73.80;19.92;;;-6.50;99.90;;;;;;4953272;28;20035;-69
2021/12/23 06:28:09;;;;;;;64.75;18.90;;;-6.40;99.90;;;;;;4967113;28;20031;-69
2021/12/23 06:30:35;;;;;;;72.82;19.40;;;-6.30;99.90;;;;;;4933103;29;20024;-69
2021/12/23 06:33:00;;;;;;;63.88;19.83;;;-6.20;99.90;;;;;;4950938;29;20035;-72
2021/12/23 06:35:28;;;;;;;69.70;20.38;;;-6.20;99.90;;;;;;4951704;29;20032;-71
2021/12/23 06:37:55;;;;;;;67.57;18.90;;;-6.10;99.90;;;;;;4952824;28;20039;-71
2021/12/23 06:40:21;;;;;;;66.82;17.95;;;-6.10;99.90;;;;;;4951600;28;20503;-70
2021/12/23 06:42:47;;;;;;;69.15;19.45;;;-6.00;99.90;;;;;;4952450;29;20042;-70
2021/12/23 06:45:14;;;;;;;66.13;18.70;;;-6.00;99.90;;;;;;4937724;28;20032;-71
2021/12/23 06:47:40;;;;;;;68.70;19.08;;;-6.00;99.90;;;;;;4948643;28;20035;-71
2021/12/23 06:50:07;;;;;;;58.53;17.55;;;-5.90;99.90;;;;;;4951367;29;20031;-71
2021/12/23 06:52:34;;;;;;;70.95;20.23;;;-6.00;99.90;;;;;;4948863;29;20031;-71
2021/12/23 06:54:59;;;;;;;75.15;21.20;;;-6.00;99.90;;;;;;4952576;28;20122;-70
2021/12/23 06:57:26;;;;;;;72.82;20.98;;;-6.10;99.90;;;;;;4951250;28;20174;-70
2021/12/23 06:59:53;;;;;;;72.65;21.38;;;-6.10;99.90;;;;;;4940181;28;20039;-70
2021/12/23 07:02:19;;;;;;;69.53;20.27;;;-6.00;99.90;;;;;;4951748;28;20039;-65
2021/12/23 07:04:45;;;;;;;72.68;20.33;;;-6.10;99.90;;;;;;4952265;28;20372;-69
2021/12/23 07:07:13;;;;;;;68.88;21.45;;;-6.30;99.90;;;;;;4950875;29;20078;-69
2021/12/23 07:09:42;;;;;;;60.00;17.38;;;-6.30;99.90;;;;;;4951713;28;20051;-70
2021/12/23 07:12:12;;;;;;;62.97;19.02;;;-6.30;99.90;;;;;;4951462;28;20031;-70
2021/12/23 07:14:39;;;;;;;73.50;19.75;;;-6.40;99.90;;;;;;4951163;29;20085;-69
2021/12/23 07:17:06;;;;;;;66.32;19.13;;;-6.30;99.90;;;;;;4952003;29;20066;-69
2021/12/23 07:19:32;;;;;;;69.32;19.02;;;-6.20;99.90;;;;;;4951497;29;20024;-70
2021/12/23 07:21:58;;;;;;;61.38;18.42;;;-6.20;99.90;;;;;;4965448;28;20066;-68
2021/12/23 07:24:24;;;;;;;63.13;17.55;;;-6.20;99.90;;;;;;4951290;29;20063;-69
2021/12/23 07:26:50;;;;;;;75.45;20.42;;;-6.20;99.90;;;;;;4950644;29;20031;-70
2021/12/23 07:29:15;;;;;;;65.13;18.20;;;-6.20;99.90;;;;;;4951580;29;20549;-71
2021/12/23 07:31:41;;;;;;;74.43;19.38;;;-6.10;99.90;;;;;;4947506;29;20134;-72
2021/12/23 07:34:07;;;;;;;69.57;18.50;;;-6.00;99.90;;;;;;4951622;29;20054;-71
2021/12/23 07:36:34;;;;;;;67.57;19.08;;;-6.00;99.90;;;;;;4951107;29;20031;-69
2021/12/23 07:38:59;;;;;;;75.75;20.90;;;-6.00;99.90;;;;;;4950380;29;20031;-70
2021/12/23 07:41:29;;;;;;;67.07;20.10;;;-6.10;99.90;;;;;;4950928;28;20062;-71
2021/12/23 07:43:59;;;;;;;76.13;19.88;;;-6.10;99.90;;;;;;4951344;28;20319;-69
2021/12/23 07:46:28;;;;;;;63.17;19.08;;;-6.00;99.90;;;;;;4950348;29;20047;-72
2021/12/23 07:48:54;;;;;;;73.28;21.17;;;-6.00;99.90;;;;;;4950055;29;20130;-69
2021/12/23 07:51:21;;;;;;;78.13;22.15;;;-5.90;99.90;;;;;;4947912;28;20473;-69
2021/12/23 07:53:47;;;;;;;80.20;22.10;;;-5.80;99.90;;;;;;4941471;29;20047;-70
2021/12/23 07:56:12;;;;;;;81.30;22.67;;;-5.70;99.90;;;;;;4949299;29;20495;-71
2021/12/23 07:58:38;;;;;;;83.50;22.42;;;-5.50;99.90;;;;;;4946955;28;20035;-71
2021/12/23 08:01:04;;;;;;;79.22;23.58;;;-5.40;99.90;;;;;;4940783;29;20039;-68
2021/12/23 08:03:30;;;;;;;80.03;22.40;;;-5.40;99.90;;;;;;4948898;29;20499;-70
2021/12/23 08:05:56;;;;;;;77.95;23.20;;;-5.30;99.90;;;;;;4951417;29;20031;-70
2021/12/23 08:08:21;;;;;;;75.45;23.42;;;-5.30;99.90;;;;;;4950858;29;20046;-69
2021/12/23 08:10:49;;;;;;;76.85;22.75;;;-5.30;99.90;;;;;;4950375;29;20500;-69
2021/12/23 08:13:15;;;;;;;78.85;22.35;;;-5.20;99.90;;;;;;4950942;29;20028;-69
2021/12/23 08:15:41;;;;;;;78.07;21.95;;;-5.20;99.90;;;;;;4935868;29;20035;-68
2021/12/23 08:18:07;;;;;;;70.07;20.92;;;-5.10;99.90;;;;;;4937169;29;20035;-68
2021/12/23 08:20:33;;;;;;;82.53;23.63;;;-5.00;99.90;;;;;;4947406;29;20034;-70
2021/12/23 08:22:58;;;;;;;65.43;20.77;;;-4.90;99.90;;;;;;4950351;29;20537;-70
2021/12/23 08:25:25;;;;;;;74.10;21.77;;;-4.90;99.90;;;;;;4950234;29;20518;-69
2021/12/23 08:27:51;;;;;;;75.35;22.17;;;-4.90;99.90;;;;;;4950598;28;20118;-70
2021/12/23 08:30:19;;;;;;;70.55;21.25;;;-4.90;99.90;;;;;;4935935;29;20099;-71
2021/12/23 08:32:47;;;;;;;70.97;22.00;;;-4.90;99.90;;;;;;4949687;28;20351;-70
2021/12/23 08:35:13;;;;;;;73.60;22.25;;;-4.80;99.90;;;;;;4951024;29;20030;-69
2021/12/23 08:37:40;;;;;;;77.93;22.00;;;-4.70;99.90;;;;;;4949958;29;20035;-70
2021/12/23 08:40:08;;;;;;;80.90;23.83;;;-4.60;99.90;;;;;;4951228;29;20035;-69
2021/12/23 08:42:34;;;;;;;81.15;24.48;;;-4.60;99.90;;;;;;4948274;29;20130;-69
2021/12/23 08:45:03;;;;;;;76.72;25.85;;;-4.50;99.90;;;;;;4951172;29;20365;-69
2021/12/23 08:47:30;;;;;;;84.88;24.85;;;-4.50;99.90;;;;;;4950349;29;20035;-68
2021/12/23 08:49:56;;;;;;;84.50;24.05;;;-4.40;99.90;;;;;;4949713;29;20031;-70
2021/12/23 08:52:21;;;;;;;77.82;24.15;;;-4.30;99.90;;;;;;4949680;29;20085;-70
2021/12/23 08:54:47;;;;;;;82.45;21.92;;;-4.30;99.90;;;;;;4950161;29;20571;-69
2021/12/23 08:57:13;;;;;;;80.75;23.95;;;-4.40;99.90;;;;;;4949569;29;20490;-71
2021/12/23 08:59:38;;;;;;;75.13;22.15;;;-4.20;99.90;;;;;;4942889;29;20109;-70
2021/12/23 09:02:05;;;;;;;73.82;22.52;;;-4.20;99.90;;;;;;4949290;29;20043;-69
2021/12/23 09:04:30;;;;;;;75.47;23.08;;;-4.10;99.90;;;;;;4956074;28;20039;-70
2021/12/23 09:06:56;;;;;;;72.78;22.77;;;-3.90;99.90;;;;;;4950845;29;20077;-70
2021/12/23 09:09:24;;;;;;;71.82;22.50;;;-3.90;99.90;;;;;;4949600;29;20468;-69
2021/12/23 09:11:50;;;;;;;73.82;21.95;;;-3.70;99.90;;;;;;4953129;28;20174;-70
2021/12/23 09:14:17;;;;;;;72.72;23.23;;;-3.70;99.90;;;;;;4954303;29;20035;-70
2021/12/23 09:16:43;;;;;;;75.18;23.02;;;-3.60;99.90;;;;;;4951966;29;20045;-66
2021/12/23 09:19:09;;;;;;;73.43;22.13;;;-3.50;99.90;;;;;;4953895;29;20027;-70
2021/12/23 09:21:36;;;;;;;76.65;24.17;;;-3.40;99.90;;;;;;4953157;29;20623;-71
2021/12/23 09:24:04;;;;;;;74.78;23.75;;;-3.30;99.90;;;;;;4953229;29;20027;-71
2021/12/23 09:26:33;;;;;;;79.40;23.40;;;-3.20;99.90;;;;;;4953223;29;20137;-70
2021/12/23 09:29:12;;;;;;;76.93;23.75;;;-3.10;99.90;;;;;;4948505;29;20122;-72
2021/12/23 09:34:22;;;;;;;77.60;24.92;;;-2.80;99.90;;;;;;4934783;29;20449;-71
2021/12/23 09:36:48;;;;;;;78.03;24.08;;;-2.70;99.90;;;;;;4950511;29;20055;-72
2021/12/23 09:39:14;;;;;;;76.35;24.25;;;-2.70;99.90;;;;;;4953724;29;20031;-71
2021/12/23 09:41:42;;;;;;;73.47;24.77;;;-2.60;99.90;;;;;;4934318;29;20452;-70
2021/12/23 09:44:09;;;;;;;78.50;24.55;;;-2.50;99.90;;;;;;4943465;29;20032;-71
2021/12/23 09:46:35;;;;;;;74.95;24.40;;;-2.50;99.90;;;;;;4952658;29;20478;-69
2021/12/23 09:49:03;;;;;;;82.03;25.73;;;-2.50;99.90;;;;;;4953886;29;20038;-67
2021/12/23 09:51:32;;;;;;;75.45;23.27;;;-2.50;99.90;;;;;;4950767;29;20039;-73
2021/12/23 09:54:00;;;;;;;75.80;25.23;;;-2.50;99.90;;;;;;4952849;29;20039;-70
2021/12/23 09:56:28;;;;;;;87.55;24.77;;;-2.50;99.90;;;;;;4934412;29;20036;-71
2021/12/23 09:58:57;;;;;;;78.35;24.80;;;-2.50;99.90;;;;;;4949753;29;20031;-66
2021/12/23 10:01:28;;;;;;;79.57;25.92;;;-2.40;99.90;;;;;;4951800;29;20042;-68
2021/12/23 10:03:54;;;;;;;80.30;24.80;;;-2.40;99.90;;;;;;4952611;29;20035;-70
2021/12/23 10:06:20;;;;;;;77.13;25.75;;;-2.30;99.90;;;;;;4953835;29;20522;-70
2021/12/23 10:08:46;;;;;;;77.55;23.83;;;-2.20;99.90;;;;;;4967278;28;20400;-69
2021/12/23 10:11:25;;;;;;;74.45;23.70;;;-2.10;99.90;;;;;;4953115;29;20035;-69
2021/12/23 10:33:28;;;;;;;91.95;30.77;;;-1.00;99.90;;;;;;4951204;29;20035;-68
2021/12/23 10:38:36;;;;;;;;;;;-0.70;99.90;;;;;;4952595;29;20035;-69
2021/12/23 10:41:23;;;;;;;59.97;20.15;;;-0.60;99.90;;;;;;4952756;29;19906;-70
2021/12/23 10:43:58;;;;;;;78.10;24.08;;;-0.50;99.90;;;;;;4947735;29;20046;-70
2021/12/23 10:46:24;;;;;;;67.13;21.63;;;-0.40;99.90;;;;;;4941203;29;20031;-69
2021/12/23 10:49:15;;;;;;;81.78;25.70;;;-0.30;99.90;;;;;;4952040;29;20034;-71
2021/12/23 10:51:57;;;;;;;86.32;29.13;;;-0.30;99.90;;;;;;4939293;29;20058;-69
2021/12/23 10:58:00;;;;;;;102.20;33.50;;;-0.20;99.90;;;;;;4934447;29;20050;-70
2021/12/23 11:00:22;;;;;;;97.28;34.75;;;-0.10;99.90;;;;;;4946557;29;20066;-70
2021/12/23 11:03:01;;;;;;;107.75;36.53;;;0.00;99.90;;;;;;4950217;29;20043;-70
2021/12/23 11:05:33;;;;;;;100.90;34.42;;;-0.10;99.90;;;;;;4951703;28;20069;-70
2021/12/23 11:08:19;;;;;;;85.65;30.65;;;0.00;99.90;;;;;;4952410;29;20043;-70
2021/12/23 11:41:13;;;;;;;70.47;25.45;;;0.80;99.90;;;;;;4951343;29;20042;-70
2021/12/23 11:43:48;;;;;;;73.67;25.33;;;0.80;99.90;;;;;;4950206;29;20381;-69
2021/12/23 11:46:22;;;;;;;61.78;22.98;;;0.90;99.90;;;;;;4951579;28;20329;-69
2021/12/23 11:48:52;;;;;;;67.95;22.42;;;0.90;99.90;;;;;;4949979;29;20032;-70
2021/12/23 11:51:29;;;;;;;55.85;18.77;;;0.90;99.90;;;;;;4950636;29;20035;-70
2021/12/23 11:53:56;;;;;;;48.42;17.55;;;0.90;99.90;;;;;;4949759;29;20227;-70
2021/12/23 11:56:22;;;;;;;60.97;21.30;;;1.00;99.90;;;;;;4951622;29;20428;-69
2021/12/23 11:58:49;;;;;;;63.38;22.10;;;1.00;99.90;;;;;;4950650;29;20031;-69
2021/12/23 12:01:24;;;;;;;59.03;21.42;;;1.10;99.90;;;;;;4950665;29;20030;-65
2021/12/23 12:04:11;;;;;;;62.83;21.73;;;1.10;99.90;;;;;;4948166;29;20503;-70
2021/12/23 12:06:42;;;;;;;63.08;22.38;;;1.20;99.90;;;;;;4948481;28;20058;-70
2021/12/23 12:09:15;;;;;;;56.17;20.10;;;1.20;99.90;;;;;;4951215;29;20027;-70
2021/12/23 12:12:02;;;;;;;59.90;20.88;;;1.30;99.90;;;;;;4950409;28;20031;-70
2021/12/23 12:14:39;;;;;;;50.38;17.75;;;1.30;99.90;;;;;;4949987;29;20105;-70
2021/12/23 12:17:34;;;;;;;59.33;20.33;;;1.40;99.90;;;;;;4951203;28;20067;-70
2021/12/23 12:20:45;;;;;;;49.75;17.77;;;1.40;99.90;;;;;;4948750;28;20094;-70
2021/12/23 12:23:14;;;;;;;58.85;18.92;;;1.50;99.90;;;;;;4949326;29;20051;-70
2021/12/23 12:25:44;;;;;;;55.60;18.17;;;1.50;99.90;;;;;;4949943;28;20043;-70
2021/12/23 12:28:21;;;;;;;51.20;17.33;;;1.60;99.90;;;;;;4943855;28;20034;-70
2021/12/23 12:30:51;;;;;;;45.70;15.00;;;1.60;99.90;;;;;;4945958;29;20039;-70
2021/12/23 12:33:25;;;;;;;44.03;16.30;;;1.80;99.90;;;;;;4950790;28;20042;-70
2021/12/23 12:36:04;;;;;;;39.72;15.10;;;1.90;99.90;;;;;;4949892;29;20089;-70
2021/12/23 12:38:43;;;;;;;40.97;15.10;;;1.90;99.90;;;;;;4950764;28;20859;-70
2021/12/23 12:41:16;;;;;;;37.58;13.75;;;1.90;99.90;;;;;;4949842;29;20126;-70
2021/12/23 12:43:45;;;;;;;44.60;14.32;;;2.00;99.90;;;;;;4950039;29;20376;-71
2021/12/23 12:46:15;;;;;;;34.45;12.88;;;2.20;99.90;;;;;;4952241;28;20054;-70
2021/12/23 12:48:56;;;;;;;33.22;12.50;;;2.40;99.90;;;;;;4953631;28;20039;-71
2021/12/23 12:51:26;;;;;;;36.67;11.93;;;2.50;99.90;;;;;;4940308;29;20063;-70
2021/12/23 12:54:04;;;;;;;33.03;11.67;;;2.70;99.90;;;;;;4954276;28;20031;-70
2021/12/23 12:56:32;;;;;;;32.08;11.27;;;2.80;99.90;;;;;;4953243;29;20333;-70
2021/12/23 12:58:58;;;;;;;37.42;12.55;;;3.00;99.90;;;;;;4953049;28;20289;-70
2021/12/23 13:01:34;;;;;;;40.25;14.40;;;3.00;99.90;;;;;;4949836;29;20043;-70
2021/12/23 13:04:02;;;;;;;41.63;15.40;;;2.90;99.90;;;;;;4953797;28;20027;-70
2021/12/23 13:06:40;;;;;;;35.35;13.65;;;2.80;99.90;;;;;;4952606;29;20031;-70
2021/12/23 13:09:12;;;;;;;31.27;11.18;;;2.80;99.90;;;;;;4952855;29;20063;-70
2021/12/23 13:11:43;;;;;;;32.97;11.80;;;2.90;99.90;;;;;;4954000;28;20054;-71
2021/12/23 13:14:14;;;;;;;;;;;3.00;99.90;;;;;;4955024;29;20067;-70
2021/12/23 13:16:57;;;;;;;31.95;11.98;;;2.90;99.90;;;;;;4954029;29;20006;-71
2021/12/23 13:19:29;;;;;;;25.77;10.15;;;3.00;99.90;;;;;;4954531;29;20038;-70
2021/12/23 13:21:57;;;;;;;31.17;11.85;;;3.10;99.90;;;;;;4953396;29;20058;-70
2021/12/23 13:24:26;;;;;;;33.92;11.18;;;3.10;99.90;;;;;;4954273;29;20066;-71
2021/12/23 13:26:54;;;;;;;32.15;11.45;;;3.00;99.90;;;;;;4949157;29;20036;-70
2021/12/23 13:29:26;;;;;;;36.20;13.18;;;3.00;99.90;;;;;;4935111;29;20039;-70
2021/12/23 13:31:53;;;;;;;31.70;12.30;;;3.10;99.90;;;;;;4934334;29;20067;-70
2021/12/23 13:34:22;;;;;;;32.63;11.95;;;2.90;99.90;;;;;;4933820;29;20032;-70
2021/12/23 13:36:59;;;;;;;41.60;14.98;;;2.90;99.90;;;;;;4935330;29;20107;-70
2021/12/23 13:39:30;;;;;;;34.22;14.40;;;2.90;99.90;;;;;;4953053;29;20027;-70